| time (UTC) | temp F | wind direction | speed MPH | gust MPH | rain 1hr in | rain 24hr in | rain mn in | humidity % | barometer mb |
| 20260905091206 | 50 | 151 | 0.0 | 0.0 | 0.00 | 0.00 | 0.00 | 85 | 1011.3 |
| 20260905090930 | 50 | 150 | 0.0 | 0.0 | 0.00 | 0.00 | 0.00 | 84 | 1011.3 |
| 20260905085858 | 50 | 151 | 0.0 | 0.0 | 0.00 | 0.00 | 0.00 | 84 | 1011.2 |
| 20260905084843 | 51 | 151 | 0.0 | 0.0 | 0.00 | 0.00 | 0.00 | 82 | 1011.1 |
| 20260905083904 | 51 | 151 | 0.0 | 0.0 | 0.00 | 0.00 | 0.00 | 82 | 1011.1 |
| 20260905082854 | 51 | 152 | 0.0 | 0.0 | 0.00 | 0.00 | 0.00 | 84 | 1011.1 |
| 20260905081857 | 51 | 243 | 0.0 | 0.0 | 0.00 | 0.00 | 0.00 | 83 | 1010.9 |
| 20260905074557 | 51 | 243 | 0.0 | 0.0 | 0.00 | 0.00 | 0.00 | 84 | 1010.6 |
| 20260905073622 | 51 | 243 | 0.0 | 0.0 | 0.00 | 0.00 | 0.00 | 82 | 1010.6 |
| 20260905070431 | 53 | 243 | 0.0 | 0.0 | 0.00 | 0.00 | 0.00 | 81 | 1010.4 |
| 20260905065412 | 54 | 243 | 0.0 | 0.0 | 0.00 | 0.00 | 0.00 | 79 | 1010.3 |
| 20260905063204 | 55 | 148 | 0.0 | 0.0 | 0.00 | 0.00 | 0.00 | 75 | 1010.1 |
| 20260905062205 | 55 | 148 | 0.0 | 0.0 | 0.00 | 0.00 | 0.00 | 76 | 1009.9 |
| 20260905061208 | 56 | 148 | 0.0 | 0.0 | 0.00 | 0.00 | 0.00 | 74 | 1009.8 |
| 20260905060205 | 56 | 148 | 0.0 | 0.0 | 0.00 | 0.00 | 0.00 | 72 | 1009.7 |
| 20260905055152 | 57 | 148 | 0.0 | 0.0 | 0.00 | 0.00 | 0.00 | 73 | 1009.6 |
| 20260905053156 | 57 | 148 | 0.0 | 0.0 | 0.00 | 0.00 | 0.00 | 72 | 1009.6 |
| 20260905051043 | 58 | 148 | 0.0 | 0.0 | 0.00 | 0.00 | 0.00 | 69 | 1009.4 |
| 20260905050042 | 59 | 148 | 0.0 | 0.0 | 0.00 | 0.00 | 0.00 | 67 | 1009.4 |
| 20260905045103 | 59 | 148 | 0.0 | 0.0 | 0.00 | 0.00 | 0.00 | 64 | 1009.3 |
| 20260905043006 | 59 | 150 | 0.0 | 0.0 | 0.00 | 0.00 | 0.00 | 67 | 1009.0 |
| 20260905041936 | 60 | 151 | 0.0 | 0.0 | 0.00 | 0.00 | 0.00 | 66 | 1008.9 |
| 20260905040936 | 61 | 150 | 0.0 | 0.0 | 0.00 | 0.00 | 0.00 | 64 | 1008.9 |
| 20260905034829 | 62 | 151 | 0.0 | 0.0 | 0.00 | 0.00 | 0.00 | 58 | 1008.7 |
| 20260905033831 | 63 | 150 | 0.0 | 0.0 | 0.00 | 0.00 | 0.00 | 55 | 1008.5 |
| 20260905032814 | 64 | 151 | 0.0 | 0.0 | 0.00 | 0.00 | 0.00 | 55 | 1008.3 |
| 20260905031815 | 65 | 150 | 0.0 | 0.0 | 0.00 | 0.00 | 0.00 | 51 | 1008.2 |
| 20260905025719 | 68 | 154 | 0.0 | 1.0 | 0.00 | 0.00 | 0.00 | 45 | 1008.0 |
| 20260905024654 | 70 | 153 | 0.0 | 0.0 | 0.00 | 0.00 | 0.00 | 43 | 1007.8 |
| 20260905023650 | 73 | 241 | 0.0 | 0.0 | 0.00 | 0.00 | 0.00 | 37 | 1007.5 |
| 20260905022644 | 74 | 257 | 0.0 | 0.0 | 0.00 | 0.00 | 0.00 | 33 | 1007.2 |
| 20260905021637 | 74 | 290 | 0.0 | 2.0 | 0.00 | 0.00 | 0.00 | 33 | 1006.9 |
| 20260905020659 | 76 | 267 | 0.0 | 2.0 | 0.00 | 0.00 | 0.00 | 32 | 1006.8 |
| 20260905015650 | 76 | 109 | 0.0 | 2.0 | 0.00 | 0.00 | 0.00 | 31 | 1006.6 |
| 20260905014646 | 77 | 215 | 0.0 | 3.0 | 0.00 | 0.00 | 0.00 | 31 | 1006.3 |
| 20260905013646 | 78 | 246 | 0.0 | 0.0 | 0.00 | 0.00 | 0.00 | 32 | 1006.1 |
| 20260905011515 | 81 | 246 | 0.0 | 0.0 | 0.00 | 0.00 | 0.00 | 29 | 1005.9 |
| 20260905010457 | 83 | 277 | 0.0 | 8.0 | 0.00 | 0.00 | 0.00 | 25 | 1005.8 |
| 20260905004336 | 84 | 264 | 0.0 | 5.0 | 0.00 | 0.00 | 0.00 | 26 | 1005.8 |
| 20260905003358 | 85 | 41 | 0.0 | 0.0 | 0.00 | 0.00 | 0.00 | 26 | 1005.8 |
| 20260905002342 | 85 | 133 | 0.0 | 8.0 | 0.00 | 0.00 | 0.00 | 25 | 1005.7 |
| 20260905001313 | 85 | 114 | 1.0 | 12.0 | 0.00 | 0.00 | 0.00 | 24 | 1005.7 |
| 20260905000306 | 85 | 122 | 3.0 | 15.0 | 0.00 | 0.00 | 0.00 | 24 | 1005.7 |
| 20260904235329 | 86 | 240 | 2.0 | 15.0 | 0.00 | 0.00 | 0.00 | 23 | 1005.8 |
| 20260904233241 | 87 | 354 | 0.0 | 4.0 | 0.00 | 0.00 | 0.00 | 23 | 1005.7 |
| 20260904232255 | 87 | 336 | 1.0 | 12.0 | 0.00 | 0.00 | 0.00 | 22 | 1005.7 |
| 20260904231226 | 87 | 325 | 2.0 | 8.0 | 0.00 | 0.00 | 0.00 | 23 | 1005.6 |
| 20260904230237 | 87 | 219 | 2.0 | 8.0 | 0.00 | 0.00 | 0.00 | 22 | 1005.8 |
| 20260904225253 | 87 | 235 | 2.0 | 9.0 | 0.00 | 0.00 | 0.00 | 23 | 1005.8 |
| 20260904224247 | 87 | 271 | 1.0 | 9.0 | 0.00 | 0.00 | 0.00 | 22 | 1006.0 |
| 20260904223306 | 86 | 158 | 3.0 | 9.0 | 0.00 | 0.00 | 0.00 | 24 | 1006.1 |
| 20260904222313 | 88 | 204 | 1.0 | 7.0 | 0.00 | 0.00 | 0.00 | 24 | 1006.2 |
| 20260904221252 | 87 | 108 | 2.0 | 9.0 | 0.00 | 0.00 | 0.00 | 25 | 1006.3 |
| 20260904220317 | 87 | 211 | 1.0 | 9.0 | 0.00 | 0.00 | 0.00 | 24 | 1006.5 |
| 20260904215250 | 86 | 18 | 2.0 | 9.0 | 0.00 | 0.00 | 0.00 | 25 | 1006.7 |
| 20260904214241 | 86 | 309 | 2.0 | 8.0 | 0.00 | 0.00 | 0.00 | 24 | 1006.7 |
| 20260904213258 | 85 | 137 | 3.0 | 8.0 | 0.00 | 0.00 | 0.00 | 26 | 1006.8 |
| 20260904212310 | 85 | 180 | 4.0 | 18.0 | 0.00 | 0.00 | 0.00 | 25 | 1007.0 |
| 20260904211308 | 85 | 229 | 2.0 | 18.0 | 0.00 | 0.00 | 0.00 | 25 | 1007.2 |
| 20260904210309 | 85 | 217 | 3.0 | 20.0 | 0.00 | 0.00 | 0.00 | 26 | 1007.2 |
| 20260904205326 | 84 | 212 | 5.0 | 20.0 | 0.00 | 0.00 | 0.00 | 26 | 1007.5 |
| 20260904204343 | 84 | 139 | 3.0 | 14.0 | 0.00 | 0.00 | 0.00 | 27 | 1007.5 |
| 20260904203408 | 83 | 177 | 3.0 | 13.0 | 0.00 | 0.00 | 0.00 | 27 | 1007.6 |
| 20260904200135 | 83 | 153 | 4.0 | 19.0 | 0.00 | 0.00 | 0.00 | 27 | 1007.7 |
| 20260904195117 | 82 | 223 | 4.0 | 19.0 | 0.00 | 0.00 | 0.00 | 29 | 1008.0 |
| 20260904194119 | 81 | 94 | 6.0 | 16.0 | 0.00 | 0.00 | 0.00 | 29 | 1008.1 |
| 20260904193126 | 81 | 280 | 5.0 | 13.0 | 0.00 | 0.00 | 0.00 | 29 | 1008.1 |
| 20260904192125 | 81 | 140 | 5.0 | 23.0 | 0.00 | 0.00 | 0.00 | 29 | 1008.1 |
| 20260904191143 | 82 | 243 | 4.0 | 23.0 | 0.00 | 0.00 | 0.00 | 29 | 1008.3 |
| 20260904190203 | 83 | 166 | 4.0 | 18.0 | 0.00 | 0.00 | 0.00 | 28 | 1008.4 |
| 20260904185228 | 82 | 166 | 5.0 | 18.0 | 0.00 | 0.00 | 0.00 | 29 | 1008.4 |
| 20260904184252 | 82 | 167 | 4.0 | 19.0 | 0.00 | 0.00 | 0.00 | 29 | 1008.6 |
| 20260904183259 | 82 | 217 | 4.0 | 19.0 | 0.00 | 0.00 | 0.00 | 30 | 1008.8 |
| 20260904181155 | 82 | 156 | 4.0 | 15.0 | 0.00 | 0.00 | 0.00 | 30 | 1009.1 |
| 20260904180159 | 83 | 184 | 2.0 | 11.0 | 0.00 | 0.00 | 0.00 | 31 | 1009.3 |
| 20260904175150 | 82 | 150 | 0.0 | 8.0 | 0.00 | 0.00 | 0.00 | 30 | 1009.7 |
| 20260904174208 | 81 | 30 | 0.0 | 1.0 | 0.00 | 0.00 | 0.00 | 34 | 1009.8 |
| 20260904173228 | 79 | 49 | 0.0 | 4.0 | 0.00 | 0.00 | 0.00 | 35 | 1009.9 |
| 20260904172155 | 77 | 18 | 0.0 | 4.0 | 0.00 | 0.00 | 0.00 | 40 | 1010.0 |
| 20260904171121 | 74 | 9 | 0.0 | 3.0 | 0.00 | 0.00 | 0.00 | 41 | 1010.2 |
| 20260904170111 | 73 | 359 | 0.0 | 3.0 | 0.00 | 0.00 | 0.00 | 41 | 1010.5 |
| 20260904165038 | 72 | 341 | 0.0 | 2.0 | 0.00 | 0.00 | 0.00 | 41 | 1010.6 |
| 20260904164045 | 71 | 354 | 0.0 | 1.0 | 0.00 | 0.00 | 0.00 | 40 | 1010.9 |
| 20260904163014 | 69 | 6 | 0.0 | 1.0 | 0.00 | 0.00 | 0.00 | 42 | 1011.0 |
| 20260904162027 | 68 | 103 | 0.0 | 0.0 | 0.00 | 0.00 | 0.00 | 44 | 1011.2 |
| 20260904161006 | 66 | 11 | 0.0 | 1.0 | 0.00 | 0.00 | 0.00 | 45 | 1011.3 |
| 20260904155937 | 65 | 353 | 0.0 | 2.0 | 0.00 | 0.00 | 0.00 | 52 | 1011.4 |
| 20260904154909 | 64 | 120 | 0.0 | 0.0 | 0.00 | 0.00 | 0.00 | 50 | 1011.6 |
| 20260904153835 | 63 | 241 | 0.0 | 0.0 | 0.00 | 0.00 | 0.00 | 50 | 1011.7 |
| 20260904152854 | 63 | 139 | 0.0 | 1.0 | 0.00 | 0.00 | 0.00 | 49 | 1011.6 |
| 20260904151843 | 61 | 128 | 0.0 | 0.0 | 0.00 | 0.00 | 0.00 | 53 | 1011.7 |
| 20260904150831 | 60 | 347 | 0.0 | 0.0 | 0.00 | 0.00 | 0.00 | 54 | 1011.8 |
| 20260904145814 | 59 | 111 | 0.0 | 0.0 | 0.00 | 0.00 | 0.00 | 56 | 1011.9 |
| 20260904144756 | 58 | 12 | 0.0 | 0.0 | 0.00 | 0.00 | 0.00 | 59 | 1012.0 |
| 20260904143745 | 57 | 336 | 0.0 | 0.0 | 0.00 | 0.00 | 0.00 | 58 | 1012.0 |
| 20260904142808 | 56 | 141 | 0.0 | 0.0 | 0.00 | 0.00 | 0.00 | 64 | 1012.1 |
| 20260904141809 | 54 | 141 | 0.0 | 0.0 | 0.00 | 0.00 | 0.00 | 71 | 1012.1 |
| 20260904140800 | 52 | 141 | 0.0 | 0.0 | 0.00 | 0.00 | 0.00 | 75 | 1012.3 |
| 20260904135801 | 49 | 150 | 0.0 | 0.0 | 0.00 | 0.00 | 0.00 | 83 | 1012.1 |
| 20260904134814 | 46 | 150 | 0.0 | 0.0 | 0.00 | 0.00 | 0.00 | 88 | 1012.0 |
| 20260904133752 | 45 | 150 | 0.0 | 0.0 | 0.00 | 0.00 | 0.00 | 88 | 1012.0 |
| 20260904132731 | 44 | 151 | 0.0 | 0.0 | 0.00 | 0.00 | 0.00 | 90 | 1011.7 |
| 20260904131744 | 44 | 151 | 0.0 | 0.0 | 0.00 | 0.00 | 0.00 | 91 | 1011.5 |
| 20260904130724 | 43 | 155 | 0.0 | 0.0 | 0.00 | 0.00 | 0.00 | 92 | 1011.4 |
| 20260904125651 | 42 | 155 | 0.0 | 0.0 | 0.00 | 0.00 | 0.00 | 92 | 1011.3 |
| 20260904124650 | 43 | 155 | 0.0 | 0.0 | 0.00 | 0.00 | 0.00 | 91 | 1011.1 |
| 20260904123625 | 43 | 155 | 0.0 | 0.0 | 0.00 | 0.00 | 0.00 | 91 | 1011.1 |
| 20260904122617 | 43 | 155 | 0.0 | 0.0 | 0.00 | 0.00 | 0.00 | 91 | 1010.8 |
| 20260904121637 | 43 | 155 | 0.0 | 0.0 | 0.00 | 0.00 | 0.00 | 90 | 1010.7 |
| 20260904120623 | 44 | 150 | 0.0 | 0.0 | 0.00 | 0.00 | 0.00 | 90 | 1010.6 |
| 20260904115636 | 44 | 150 | 0.0 | 0.0 | 0.00 | 0.00 | 0.00 | 89 | 1010.6 |
| 20260904114626 | 44 | 125 | 0.0 | 0.0 | 0.00 | 0.00 | 0.00 | 88 | 1010.5 |
| 20260904113604 | 45 | 124 | 0.0 | 0.0 | 0.00 | 0.00 | 0.00 | 88 | 1010.4 |
| 20260904112545 | 45 | 124 | 0.0 | 0.0 | 0.00 | 0.00 | 0.00 | 88 | 1010.5 |
| 20260904111521 | 44 | 117 | 0.0 | 1.0 | 0.00 | 0.00 | 0.00 | 89 | 1010.3 |
| 20260904110500 | 45 | 67 | 0.0 | 0.0 | 0.00 | 0.00 | 0.00 | 89 | 1010.5 |
| 20260904105505 | 45 | 203 | 0.0 | 0.0 | 0.00 | 0.00 | 0.00 | 88 | 1010.3 |
| 20260904104500 | 45 | 107 | 0.0 | 0.0 | 0.00 | 0.00 | 0.00 | 88 | 1010.2 |
| 20260904103442 | 45 | 138 | 0.0 | 0.0 | 0.00 | 0.00 | 0.00 | 88 | 1010.1 |
| 20260904102423 | 45 | 253 | 0.0 | 0.0 | 0.00 | 0.00 | 0.00 | 88 | 1010.0 |
| 20260904101437 | 45 | 122 | 0.0 | 0.0 | 0.00 | 0.00 | 0.00 | 88 | 1009.9 |
| 20260904100405 | 45 | 122 | 0.0 | 0.0 | 0.00 | 0.00 | 0.00 | 87 | 1009.8 |
| 20260904095331 | 46 | 123 | 0.0 | 0.0 | 0.00 | 0.00 | 0.00 | 87 | 1009.8 |
| 20260904094306 | 46 | 134 | 0.0 | 0.0 | 0.00 | 0.00 | 0.00 | 87 | 1009.5 |
| 20260904093235 | 46 | 134 | 0.0 | 0.0 | 0.00 | 0.00 | 0.00 | 87 | 1009.4 |
| 20260904092236 | 46 | 134 | 0.0 | 0.0 | 0.00 | 0.00 | 0.00 | 87 | 1009.2 |